Time,TemperatureF,DewpointF,PressureIn,WindDirection,WindDirectionDegrees,WindSpeedMPH,WindSpeedGustMPH,Humidity,HourlyPrecipIn,Conditions,Clouds,dailyrainin,SolarRadiationWatts/m^2,SoftwareType,DateUTC
2013-01-29 00:04:00,50.9,46.6,29.64,SSW,213,10.4,10.4,85,0.00,RA,,0.00,0.0,WeatherDisplay:10.37,2013-01-29 00:04:00,
2013-01-29 00:09:00,50.9,46.6,29.64,WSW,250,13.8,13.8,85,0.00,RA,,0.00,0.0,WeatherDisplay:10.37,2013-01-29 00:09:00,
2013-01-29 00:14:00,50.9,46.6,29.65,WSW,248,12.7,12.7,85,0.00,CLR,,0.00,0.0,WeatherDisplay:10.37,2013-01-29 00:14:00,
2013-01-29 00:19:00,50.9,46.2,29.65,West,262,13.8,13.8,84,0.00,CLR,,0.00,0.0,WeatherDisplay:10.37,2013-01-29 00:19:00,
2013-01-29 00:24:00,50.9,46.2,29.65,West,264,15.0,15.0,84,0.00,CLR,,0.00,0.0,WeatherDisplay:10.37,2013-01-29 00:24:00,
2013-01-29 00:29:00,50.9,46.2,29.66,West,277,19.0,19.0,84,0.00,CLR,,0.00,0.0,WeatherDisplay:10.37,2013-01-29 00:29:00,
2013-01-29 00:34:00,50.9,46.2,29.65,SW,214,14.0,14.0,84,0.00,CLR,,0.00,0.0,WeatherDisplay:10.37,2013-01-29 00:34:00,
2013-01-29 00:39:00,50.9,45.9,29.66,WSW,258,16.1,16.1,83,0.00,CLR,,0.00,0.0,WeatherDisplay:10.37,2013-01-29 00:39:00,
2013-01-29 00:44:00,50.9,45.9,29.66,SSW,205,15.0,15.0,83,0.00,CLR,,0.00,0.0,WeatherDisplay:10.37,2013-01-29 00:44:00,
2013-01-29 00:49:00,50.9,45.9,29.66,WSW,253,10.4,10.4,83,0.00,CLR,,0.00,0.0,WeatherDisplay:10.37,2013-01-29 00:49:00,
2013-01-29 00:54:00,50.9,45.9,29.66,WSW,254,17.3,17.3,83,0.00,CLR,,0.00,0.0,WeatherDisplay:10.37,2013-01-29 00:54:00,
2013-01-29 00:59:00,50.9,45.9,29.67,WSW,246,17.3,17.3,83,0.00,CLR,,0.00,0.0,WeatherDisplay:10.37,2013-01-29 00:59:00,
2013-01-29 01:04:00,50.9,45.9,29.67,West,264,12.7,12.7,83,0.00,CLR,,0.00,0.0,WeatherDisplay:10.37,2013-01-29 01:04:00,
2013-01-29 01:09:00,50.9,45.9,29.66,West,281,11.5,11.5,83,0.00,CLR,,0.00,0.0,WeatherDisplay:10.37,2013-01-29 01:09:00,
2013-01-29 01:14:00,50.9,45.6,29.67,West,261,15.0,15.0,82,0.00,CLR,,0.00,0.0,WeatherDisplay:10.37,2013-01-29 01:14:00,
2013-01-29 01:19:00,51.0,45.7,29.67,WSW,239,11.5,11.5,82,0.00,CLR,,0.00,0.0,WeatherDisplay:10.37,2013-01-29 01:19:00,
2013-01-29 01:24:00,50.9,45.6,29.68,WSW,247,18.4,18.4,82,0.00,CLR,,0.00,0.0,WeatherDisplay:10.37,2013-01-29 01:24:00,
2013-01-29 01:29:00,50.9,45.6,29.67,SW,215,11.5,11.5,82,0.00,CLR,,0.00,0.0,WeatherDisplay:10.37,2013-01-29 01:29:00,
2013-01-29 01:34:00,50.9,45.9,29.67,SW,218,15.0,15.0,83,0.00,CLR,,0.00,0.0,WeatherDisplay:10.37,2013-01-29 01:34:00,
2013-01-29 01:39:00,50.9,45.9,29.67,SW,224,9.2,9.2,83,0.00,CLR,,0.00,0.0,WeatherDisplay:10.37,2013-01-29 01:39:00,
2013-01-29 01:44:00,50.8,45.8,29.67,SW,227,11.5,11.5,83,0.00,CLR,,0.00,0.0,WeatherDisplay:10.37,2013-01-29 01:44:00,
2013-01-29 01:49:00,50.7,46.0,29.68,SW,233,6.9,6.9,84,0.00,CLR,,0.00,0.0,WeatherDisplay:10.37,2013-01-29 01:49:00,
2013-01-29 01:54:00,50.7,46.4,29.68,WSW,245,12.7,12.7,85,0.00,CLR,,0.00,0.0,WeatherDisplay:10.37,2013-01-29 01:54:00,
2013-01-29 01:59:00,50.7,46.7,29.68,SW,219,11.5,11.5,86,0.00,CLR,,0.00,0.0,WeatherDisplay:10.37,2013-01-29 01:59:00,
2013-01-29 02:04:00,50.7,46.7,29.68,West,270,4.6,4.6,86,0.00,CLR,,0.00,0.0,WeatherDisplay:10.37,2013-01-29 02:04:00,
2013-01-29 02:09:00,50.7,46.7,29.68,WSW,254,10.4,10.4,86,0.00,CLR,,0.00,0.0,WeatherDisplay:10.37,2013-01-29 02:09:00,
2013-01-29 02:14:00,50.7,46.7,29.67,SW,236,15.0,15.0,86,0.00,CLR,,0.00,0.0,WeatherDisplay:10.37,2013-01-29 02:14:00,
2013-01-29 02:19:00,50.7,46.7,29.68,WSW,247,4.0,4.0,86,0.00,CLR,,0.00,0.0,WeatherDisplay:10.37,2013-01-29 02:19:00,
2013-01-29 02:24:00,50.7,46.7,29.67,SSW,213,10.0,10.0,86,0.00,CLR,,0.00,0.0,WeatherDisplay:10.37,2013-01-29 02:24:00,
2013-01-29 02:29:00,50.7,47.0,29.67,SW,233,6.9,6.9,87,0.00,CLR,,0.00,0.0,WeatherDisplay:10.37,2013-01-29 02:29:00,
2013-01-29 02:34:00,50.7,47.0,29.68,SSW,213,9.2,9.2,87,0.00,CLR,,0.00,0.0,WeatherDisplay:10.37,2013-01-29 02:34:00,
2013-01-29 02:39:00,50.7,47.0,29.67,SW,233,10.4,10.4,87,0.00,CLR,,0.00,0.0,WeatherDisplay:10.37,2013-01-29 02:39:00,
2013-01-29 02:44:00,50.7,47.0,29.68,SSW,213,19.6,19.6,87,0.00,CLR,,0.00,0.0,WeatherDisplay:10.37,2013-01-29 02:44:00,
2013-01-29 02:49:00,50.6,46.9,29.68,WSW,254,9.2,9.2,87,0.00,CLR,,0.00,0.0,WeatherDisplay:10.37,2013-01-29 02:49:00,
2013-01-29 02:54:00,50.6,47.2,29.67,WSW,240,10.4,10.4,88,0.00,CLR,,0.00,0.0,WeatherDisplay:10.37,2013-01-29 02:54:00,
2013-01-29 02:59:00,50.4,47.0,29.68,WSW,250,5.8,5.8,88,0.00,CLR,,0.00,0.0,WeatherDisplay:10.37,2013-01-29 02:59:00,
2013-01-29 03:04:00,50.3,46.9,29.68,SW,224,10.4,10.4,88,0.00,CLR,,0.00,0.0,WeatherDisplay:10.37,2013-01-29 03:04:00,
2013-01-29 03:09:00,50.3,47.2,29.68,WSW,241,9.2,9.2,89,0.00,CLR,,0.00,0.0,WeatherDisplay:10.37,2013-01-29 03:09:00,
2013-01-29 03:14:00,50.2,47.1,29.68,SW,217,9.2,9.2,89,0.00,CLR,,0.00,0.0,WeatherDisplay:10.37,2013-01-29 03:14:00,
2013-01-29 03:19:00,50.1,47.0,29.68,WSW,242,11.5,11.5,89,0.00,CLR,,0.00,0.0,WeatherDisplay:10.37,2013-01-29 03:19:00,
2013-01-29 03:24:00,50.0,47.2,29.68,SSW,204,5.8,5.8,90,0.01,RA,,0.01,0.0,WeatherDisplay:10.37,2013-01-29 03:24:00,
2013-01-29 03:29:00,49.9,47.1,29.68,SW,219,3.5,3.5,90,0.01,RA,,0.01,0.0,WeatherDisplay:10.37,2013-01-29 03:29:00,
2013-01-29 03:34:00,49.7,47.2,29.68,WSW,248,5.8,5.8,91,0.01,,,0.01,0.0,WeatherDisplay:10.37,2013-01-29 03:34:00,
2013-01-29 03:39:00,49.6,47.1,29.68,SW,229,3.5,3.5,91,0.02,RA,,0.02,0.0,WeatherDisplay:10.37,2013-01-29 03:39:00,
2013-01-29 03:44:00,49.5,47.0,29.68,SSW,193,9.0,9.0,91,0.02,RA,,0.02,0.0,WeatherDisplay:10.37,2013-01-29 03:44:00,
2013-01-29 03:49:00,49.4,47.2,29.68,SW,232,4.6,4.6,92,0.02,RA,,0.02,0.0,WeatherDisplay:10.37,2013-01-29 03:49:00,
2013-01-29 03:54:00,49.3,47.1,29.68,SW,227,3.5,3.5,92,0.02,RA,,0.02,0.0,WeatherDisplay:10.37,2013-01-29 03:54:00,
2013-01-29 03:59:00,49.3,47.1,29.68,South,188,11.5,11.5,92,0.02,CLR,,0.02,0.0,WeatherDisplay:10.37,2013-01-29 03:59:00,
2013-01-29 04:04:00,49.2,47.3,29.68,West,261,4.0,4.0,93,0.02,CLR,,0.02,0.0,WeatherDisplay:10.37,2013-01-29 04:04:00,
2013-01-29 04:09:00,49.2,47.3,29.68,SW,229,6.9,6.9,93,0.02,CLR,,0.02,0.0,WeatherDisplay:10.37,2013-01-29 04:09:00,
2013-01-29 04:14:00,49.2,47.3,29.68,SW,219,5.8,5.8,93,0.02,CLR,,0.02,0.0,WeatherDisplay:10.37,2013-01-29 04:14:00,
2013-01-29 04:19:00,49.2,47.3,29.68,SSW,195,12.0,12.0,93,0.02,CLR,,0.02,0.0,WeatherDisplay:10.37,2013-01-29 04:19:00,
2013-01-29 04:24:00,49.2,47.5,29.67,SSW,198,11.5,11.5,94,0.02,CLR,,0.02,0.0,WeatherDisplay:10.37,2013-01-29 04:24:00,
2013-01-29 04:29:00,49.1,47.4,29.67,South,191,12.7,12.7,94,0.02,CLR,,0.02,0.0,WeatherDisplay:10.37,2013-01-29 04:29:00,
2013-01-29 04:34:00,49.0,47.3,29.67,SW,215,11.5,11.5,94,0.02,CLR,,0.02,0.0,WeatherDisplay:10.37,2013-01-29 04:34:00,
2013-01-29 04:39:00,48.8,47.2,29.67,SW,227,7.0,7.0,94,0.01,CLR,,0.02,0.0,WeatherDisplay:10.37,2013-01-29 04:39:00,
2013-01-29 04:44:00,48.6,47.0,29.66,SW,236,19.6,19.6,94,0.01,CLR,,0.02,0.0,WeatherDisplay:10.37,2013-01-29 04:44:00,
2013-01-29 04:49:00,48.5,46.9,29.66,West,259,6.9,6.9,94,0.00,CLR,,0.02,0.0,WeatherDisplay:10.37,2013-01-29 04:49:00,
2013-01-29 04:54:00,48.4,46.8,29.66,SSW,211,3.5,3.5,94,0.00,CLR,,0.02,0.0,WeatherDisplay:10.37,2013-01-29 04:54:00,
2013-01-29 04:59:00,48.3,46.7,29.66,SW,236,9.0,9.0,94,0.00,CLR,,0.02,0.0,WeatherDisplay:10.37,2013-01-29 04:59:00,
2013-01-29 05:00:00,48.3,46.7,29.66,SW,219,4.6,4.6,94,0.00,CLR,,0.02,0.0,WeatherDisplay:10.37,2013-01-29 05:00:00,
2013-01-29 05:03:00,48.3,46.7,29.66,SW,234,11.5,11.5,94,0.00,CLR,,0.02,0.0,WeatherDisplay:10.37,2013-01-29 05:03:00,
2013-01-29 05:08:00,48.4,47.0,29.66,SW,234,6.9,6.9,95,0.00,CLR,,0.02,0.0,WeatherDisplay:10.37,2013-01-29 05:08:00,
2013-01-29 05:13:00,48.4,47.0,29.66,SW,221,5.0,5.0,95,0.00,CLR,,0.02,0.0,WeatherDisplay:10.37,2013-01-29 05:13:00,
2013-01-29 05:18:00,48.5,47.1,29.66,South,173,11.5,11.5,95,0.00,CLR,,0.02,0.0,WeatherDisplay:10.37,2013-01-29 05:18:00,
2013-01-29 05:23:00,48.5,47.1,29.66,SSW,194,5.8,5.8,95,0.00,CLR,,0.02,0.0,WeatherDisplay:10.37,2013-01-29 05:23:00,
2013-01-29 05:28:00,48.4,47.0,29.66,SSW,198,4.6,4.6,95,0.00,CLR,,0.02,0.0,WeatherDisplay:10.37,2013-01-29 05:28:00,
2013-01-29 05:33:00,48.4,47.0,29.66,SSW,205,4.6,4.6,95,0.00,CLR,,0.02,0.0,WeatherDisplay:10.37,2013-01-29 05:33:00,
2013-01-29 05:38:00,48.3,46.9,29.65,South,185,5.8,5.8,95,0.00,CLR,,0.02,0.0,WeatherDisplay:10.37,2013-01-29 05:38:00,
2013-01-29 05:43:00,48.3,46.9,29.65,SW,214,8.1,8.1,95,0.00,CLR,,0.02,0.0,WeatherDisplay:10.37,2013-01-29 05:43:00,
2013-01-29 05:48:00,48.3,46.9,29.65,WSW,238,9.0,9.0,95,0.00,CLR,,0.02,0.0,WeatherDisplay:10.37,2013-01-29 05:48:00,
2013-01-29 05:53:00,48.4,47.0,29.65,SSW,206,6.9,6.9,95,0.00,CLR,,0.02,0.0,WeatherDisplay:10.37,2013-01-29 05:53:00,
2013-01-29 05:58:00,48.4,47.3,29.65,SW,218,5.8,5.8,96,0.00,CLR,,0.02,0.0,WeatherDisplay:10.37,2013-01-29 05:58:00,
2013-01-29 06:03:00,48.4,47.3,29.65,SW,219,10.4,10.4,96,0.00,CLR,,0.02,0.0,WeatherDisplay:10.37,2013-01-29 06:03:00,
2013-01-29 06:08:00,48.4,47.3,29.64,SW,214,4.6,4.6,96,0.00,CLR,,0.02,0.0,WeatherDisplay:10.37,2013-01-29 06:08:00,
2013-01-29 06:13:00,48.4,47.3,29.64,WSW,257,2.3,2.3,96,0.00,CLR,,0.02,0.0,WeatherDisplay:10.37,2013-01-29 06:13:00,
2013-01-29 06:18:00,48.5,47.4,29.64,WSW,243,4.6,4.6,96,0.00,CLR,,0.02,0.0,WeatherDisplay:10.37,2013-01-29 06:18:00,
2013-01-29 06:23:00,48.4,47.3,29.64,WSW,243,1.2,0.0,96,0.00,CLR,,0.02,0.0,WeatherDisplay:10.37,2013-01-29 06:23:00,
2013-01-29 06:28:00,48.4,47.3,29.64,WSW,242,2.3,2.3,96,0.00,CLR,,0.02,0.0,WeatherDisplay:10.37,2013-01-29 06:28:00,
2013-01-29 06:33:00,48.5,47.4,29.64,WSW,240,4.0,4.0,96,0.00,CLR,,0.02,0.0,WeatherDisplay:10.37,2013-01-29 06:33:00,
2013-01-29 06:38:00,48.5,47.4,29.64,WSW,240,2.3,2.3,96,0.00,CLR,,0.02,0.0,WeatherDisplay:10.37,2013-01-29 06:38:00,
2013-01-29 06:43:00,48.6,47.5,29.64,WSW,242,3.5,3.5,96,0.00,CLR,,0.02,0.0,WeatherDisplay:10.37,2013-01-29 06:43:00,
2013-01-29 06:48:00,48.5,47.4,29.64,WSW,242,1.2,1.2,96,0.00,CLR,,0.02,0.0,WeatherDisplay:10.37,2013-01-29 06:48:00,
2013-01-29 06:53:00,48.6,47.5,29.64,SSW,205,5.8,5.8,96,0.00,CLR,,0.02,0.0,WeatherDisplay:10.37,2013-01-29 06:53:00,
2013-01-29 06:58:00,48.8,47.7,29.64,SW,226,3.5,3.5,96,0.00,CLR,,0.02,0.0,WeatherDisplay:10.37,2013-01-29 06:58:00,
2013-01-29 07:03:00,49.0,47.9,29.64,SW,215,4.6,4.6,96,0.00,CLR,,0.02,0.0,WeatherDisplay:10.37,2013-01-29 07:03:00,
2013-01-29 07:08:00,49.0,47.9,29.64,SW,223,4.6,4.6,96,0.00,CLR,,0.02,0.0,WeatherDisplay:10.37,2013-01-29 07:08:00,
2013-01-29 07:13:00,49.2,48.1,29.64,WSW,238,4.6,4.6,96,0.00,CLR,,0.02,0.0,WeatherDisplay:10.37,2013-01-29 07:13:00,
2013-01-29 07:18:00,49.4,48.6,29.64,WSW,244,6.0,6.0,97,0.00,OVC,,0.02,0.0,WeatherDisplay:10.37,2013-01-29 07:18:00,
2013-01-29 07:23:00,49.6,48.8,29.64,WSW,248,10.4,10.4,97,0.00,OVC,,0.02,0.0,WeatherDisplay:10.37,2013-01-29 07:23:00,
2013-01-29 07:28:00,49.8,49.0,29.63,SW,230,11.5,11.5,97,0.00,OVC,,0.02,0.0,WeatherDisplay:10.37,2013-01-29 07:28:00,
2013-01-29 07:33:00,49.9,49.1,29.63,WSW,244,10.4,10.4,97,0.00,OVC,,0.02,0.0,WeatherDisplay:10.37,2013-01-29 07:33:00,
2013-01-29 07:38:00,50.1,49.3,29.63,WSW,250,6.9,6.9,97,0.00,OVC,,0.02,0.0,WeatherDisplay:10.37,2013-01-29 07:38:00,
2013-01-29 07:43:00,50.3,49.5,29.63,WSW,250,11.5,11.5,97,0.00,OVC,,0.02,0.0,WeatherDisplay:10.37,2013-01-29 07:43:00,
2013-01-29 07:48:00,50.5,49.7,29.63,SW,229,6.0,6.0,97,0.00,OVC,,0.02,0.0,WeatherDisplay:10.37,2013-01-29 07:48:00,
2013-01-29 07:53:00,50.6,49.8,29.63,WSW,244,8.1,8.1,97,0.00,OVC,,0.02,0.0,WeatherDisplay:10.37,2013-01-29 07:53:00,
2013-01-29 07:58:00,50.8,50.0,29.63,SW,232,11.5,11.5,97,0.00,OVC,,0.02,0.0,WeatherDisplay:10.37,2013-01-29 07:58:00,
2013-01-29 08:03:00,50.9,50.1,29.63,WSW,239,9.2,9.2,97,0.00,OVC,,0.02,0.0,WeatherDisplay:10.37,2013-01-29 08:03:00,
2013-01-29 08:08:00,51.0,50.2,29.63,SW,217,3.5,3.5,97,0.00,BKN,,0.02,5.0,WeatherDisplay:10.37,2013-01-29 08:08:00,
2013-01-29 08:13:00,51.2,50.4,29.64,WSW,256,4.6,4.6,97,0.00,BKN,,0.02,5.0,WeatherDisplay:10.37,2013-01-29 08:13:00,
2013-01-29 08:18:00,51.3,50.5,29.64,WSW,238,12.7,12.7,97,0.00,BKN,,0.02,9.0,WeatherDisplay:10.37,2013-01-29 08:18:00,
2013-01-29 08:23:00,51.5,50.7,29.64,SW,217,11.5,11.5,97,0.00,BKN,,0.02,12.0,WeatherDisplay:10.37,2013-01-29 08:23:00,
2013-01-29 08:28:00,51.7,50.9,29.64,WSW,240,3.5,3.5,97,0.00,BKN,,0.02,14.0,WeatherDisplay:10.37,2013-01-29 08:28:00,
2013-01-29 08:33:00,51.9,51.1,29.64,SW,234,13.8,13.8,97,0.00,BKN,,0.02,19.0,WeatherDisplay:10.37,2013-01-29 08:33:00,
2013-01-29 08:38:00,51.9,51.1,29.63,SW,227,5.8,5.8,97,0.00,BKN,,0.02,19.0,WeatherDisplay:10.37,2013-01-29 08:38:00,
2013-01-29 08:43:00,52.0,51.2,29.64,SSW,196,8.1,8.1,97,0.00,BKN,,0.02,26.0,WeatherDisplay:10.37,2013-01-29 08:43:00,
2013-01-29 08:48:00,52.1,51.3,29.64,SW,222,9.2,9.2,97,0.00,BKN,,0.02,28.0,WeatherDisplay:10.37,2013-01-29 08:48:00,
2013-01-29 08:53:00,52.2,51.4,29.64,WSW,240,5.8,5.8,97,0.00,BKN,,0.02,30.0,WeatherDisplay:10.37,2013-01-29 08:53:00,
2013-01-29 08:58:00,52.3,51.5,29.64,SW,222,10.4,10.4,97,0.00,BKN,,0.02,28.0,WeatherDisplay:10.37,2013-01-29 08:58:00,
2013-01-29 09:03:00,52.4,51.6,29.64,SW,230,12.7,12.7,97,0.00,BKN,,0.02,30.0,WeatherDisplay:10.37,2013-01-29 09:03:00,
2013-01-29 09:08:00,52.5,51.7,29.64,SW,229,9.2,9.2,97,0.00,BKN,,0.02,35.0,WeatherDisplay:10.37,2013-01-29 09:08:00,
2013-01-29 09:13:00,52.6,51.8,29.65,SW,222,12.7,12.7,97,0.00,BKN,,0.02,35.0,WeatherDisplay:10.37,2013-01-29 09:13:00,
2013-01-29 09:18:00,52.7,51.6,29.65,SSW,205,12.7,12.7,96,0.00,BKN,,0.02,47.0,WeatherDisplay:10.37,2013-01-29 09:18:00,
2013-01-29 09:23:00,52.9,51.8,29.65,WSW,250,11.5,11.5,96,0.00,BKN,,0.02,42.0,WeatherDisplay:10.37,2013-01-29 09:23:00,
2013-01-29 09:28:00,53.0,51.9,29.65,SW,217,11.5,11.5,96,0.00,BKN,,0.02,60.0,WeatherDisplay:10.37,2013-01-29 09:28:00,
2013-01-29 09:33:00,53.1,52.0,29.65,SW,223,10.4,10.4,96,0.00,BKN,,0.02,53.0,WeatherDisplay:10.37,2013-01-29 09:33:00,
2013-01-29 09:38:00,53.2,52.1,29.65,South,190,10.4,10.4,96,0.00,BKN,,0.02,42.0,WeatherDisplay:10.37,2013-01-29 09:38:00,
2013-01-29 09:43:00,53.2,52.1,29.65,WSW,254,6.9,6.9,96,0.00,BKN,,0.02,47.0,WeatherDisplay:10.37,2013-01-29 09:43:00,
2013-01-29 09:48:00,53.3,52.2,29.65,South,188,15.0,15.0,96,0.00,BKN,,0.02,58.0,WeatherDisplay:10.37,2013-01-29 09:48:00,
2013-01-29 09:53:00,53.4,52.3,29.65,West,259,9.2,9.2,96,0.00,BKN,,0.02,83.0,WeatherDisplay:10.37,2013-01-29 09:53:00,
2013-01-29 09:58:00,53.5,52.4,29.65,South,173,10.0,10.0,96,0.00,BKN,,0.02,84.0,WeatherDisplay:10.37,2013-01-29 09:58:00,
2013-01-29 10:03:00,53.5,52.4,29.65,West,261,13.8,13.8,96,0.00,BKN,,0.02,76.0,WeatherDisplay:10.37,2013-01-29 10:03:00,
2013-01-29 10:08:00,53.6,52.5,29.65,South,188,6.9,6.9,96,0.00,BKN,,0.02,88.0,WeatherDisplay:10.37,2013-01-29 10:08:00,
2013-01-29 10:13:00,53.6,52.2,29.65,WSW,257,12.7,12.7,95,0.00,BKN,,0.02,63.0,WeatherDisplay:10.37,2013-01-29 10:13:00,
2013-01-29 10:18:00,53.6,52.2,29.65,SSW,200,8.1,8.1,95,0.00,BKN,,0.02,77.0,WeatherDisplay:10.37,2013-01-29 10:18:00,
2013-01-29 10:23:00,53.7,52.3,29.65,WSW,244,10.4,10.4,95,0.00,BKN,,0.02,65.0,WeatherDisplay:10.37,2013-01-29 10:23:00,
2013-01-29 10:28:00,53.7,52.3,29.65,WSW,246,11.5,11.5,95,0.00,BKN,,0.02,69.0,WeatherDisplay:10.37,2013-01-29 10:28:00,
2013-01-29 10:33:00,53.7,52.3,29.65,SW,217,13.8,13.8,95,0.00,BKN,,0.02,69.0,WeatherDisplay:10.37,2013-01-29 10:33:00,
2013-01-29 10:38:00,53.8,52.4,29.65,SSW,203,11.5,11.5,95,0.00,BKN,,0.02,70.0,WeatherDisplay:10.37,2013-01-29 10:38:00,
2013-01-29 10:43:00,53.8,52.4,29.65,WSW,249,21.0,21.0,95,0.00,BKN,,0.02,86.0,WeatherDisplay:10.37,2013-01-29 10:43:00,
2013-01-29 10:48:00,53.9,52.5,29.65,WSW,258,11.5,11.5,95,0.00,BKN,,0.02,97.0,WeatherDisplay:10.37,2013-01-29 10:48:00,
2013-01-29 10:53:00,54.1,52.7,29.65,SSW,209,17.3,17.3,95,0.00,BKN,,0.02,97.0,WeatherDisplay:10.37,2013-01-29 10:53:00,
2013-01-29 10:58:00,54.2,52.5,29.66,WSW,245,16.1,16.1,94,0.00,BKN,,0.02,98.0,WeatherDisplay:10.37,2013-01-29 10:58:00,
2013-01-29 11:03:00,54.3,52.6,29.65,SSW,209,12.0,12.0,94,0.00,BKN,,0.02,111.0,WeatherDisplay:10.37,2013-01-29 11:03:00,
2013-01-29 11:08:00,54.4,52.7,29.65,SSW,197,9.2,9.2,94,0.00,BKN,,0.02,79.0,WeatherDisplay:10.37,2013-01-29 11:08:00,
2013-01-29 11:13:00,54.4,52.7,29.65,WSW,238,10.4,10.4,94,0.00,BKN,,0.02,76.0,WeatherDisplay:10.37,2013-01-29 11:13:00,
2013-01-29 11:18:00,54.5,52.8,29.65,SW,217,12.7,12.7,94,0.00,BKN,,0.02,53.0,WeatherDisplay:10.37,2013-01-29 11:18:00,
2013-01-29 11:23:00,54.4,52.7,29.65,South,183,19.0,19.0,94,0.00,BKN,,0.02,51.0,WeatherDisplay:10.37,2013-01-29 11:23:00,
2013-01-29 11:28:00,54.4,52.7,29.65,SW,226,10.4,10.4,94,0.00,BKN,,0.02,47.0,WeatherDisplay:10.37,2013-01-29 11:28:00,
2013-01-29 11:33:00,54.4,52.7,29.65,SW,223,9.2,9.2,94,0.01,RA,,0.03,44.0,WeatherDisplay:10.37,2013-01-29 11:33:00,
2013-01-29 11:38:00,54.4,52.7,29.65,South,179,11.5,11.5,94,0.01,RA,,0.03,46.0,WeatherDisplay:10.37,2013-01-29 11:38:00,
2013-01-29 11:43:00,54.3,52.6,29.65,WSW,253,13.8,13.8,94,0.01,BKN,,0.03,44.0,WeatherDisplay:10.37,2013-01-29 11:43:00,
2013-01-29 11:48:00,54.3,52.6,29.65,West,273,10.4,10.4,94,0.01,BKN,,0.03,62.0,WeatherDisplay:10.37,2013-01-29 11:48:00,
2013-01-29 11:53:00,54.4,52.7,29.64,South,188,11.5,11.5,94,0.01,BKN,,0.03,49.0,WeatherDisplay:10.37,2013-01-29 11:53:00,
2013-01-29 11:58:00,54.4,52.7,29.64,South,184,12.7,12.7,94,0.01,BKN,,0.03,49.0,WeatherDisplay:10.37,2013-01-29 11:58:00,
2013-01-29 12:03:00,54.4,52.7,29.64,WSW,252,9.2,9.2,94,0.01,BKN,,0.03,69.0,WeatherDisplay:10.37,2013-01-29 12:03:00,
2013-01-29 12:08:00,54.5,52.8,29.64,SSW,202,4.6,4.6,94,0.01,BKN,,0.03,62.0,WeatherDisplay:10.37,2013-01-29 12:08:00,
2013-01-29 12:13:00,54.6,52.9,29.64,SSW,205,11.5,11.5,94,0.01,BKN,,0.03,74.0,WeatherDisplay:10.37,2013-01-29 12:13:00,
2013-01-29 12:18:00,54.7,53.0,29.64,SW,221,19.6,19.6,94,0.01,BKN,,0.03,53.0,WeatherDisplay:10.37,2013-01-29 12:18:00,
2013-01-29 12:23:00,54.8,53.1,29.65,SW,216,15.0,15.0,94,0.01,BKN,,0.03,54.0,WeatherDisplay:10.37,2013-01-29 12:23:00,
2013-01-29 12:28:00,54.9,53.2,29.64,SW,223,11.5,11.5,94,0.01,BKN,,0.03,67.0,WeatherDisplay:10.37,2013-01-29 12:28:00,
2013-01-29 12:33:00,54.9,53.2,29.64,SSW,195,23.0,23.0,94,0.00,BKN,,0.03,72.0,WeatherDisplay:10.37,2013-01-29 12:33:00,
2013-01-29 12:38:00,54.9,53.2,29.64,West,270,11.5,11.5,94,0.00,BKN,,0.03,65.0,WeatherDisplay:10.37,2013-01-29 12:38:00,
2013-01-29 12:43:00,54.8,53.1,29.64,SW,233,10.0,10.0,94,0.00,BKN,,0.03,51.0,WeatherDisplay:10.37,2013-01-29 12:43:00,
2013-01-29 12:48:00,54.8,53.1,29.64,SW,233,11.5,11.5,94,0.00,BKN,,0.03,63.0,WeatherDisplay:10.37,2013-01-29 12:48:00,
2013-01-29 12:53:00,54.8,53.1,29.64,SW,226,18.4,18.4,94,0.00,BKN,,0.03,72.0,WeatherDisplay:10.37,2013-01-29 12:53:00,
2013-01-29 12:58:00,54.9,53.2,29.64,SSW,196,8.1,8.1,94,0.00,BKN,,0.03,90.0,WeatherDisplay:10.37,2013-01-29 12:58:00,
2013-01-29 13:03:00,55.0,53.3,29.64,SW,225,19.6,19.6,94,0.00,BKN,,0.03,69.0,WeatherDisplay:10.37,2013-01-29 13:03:00,
2013-01-29 13:08:00,55.1,53.1,29.64,SW,219,9.2,9.2,93,0.00,BKN,,0.03,77.0,WeatherDisplay:10.37,2013-01-29 13:08:00,
2013-01-29 13:13:00,55.3,53.3,29.64,West,272,16.1,16.1,93,0.00,BKN,,0.03,56.0,WeatherDisplay:10.37,2013-01-29 13:13:00,
2013-01-29 13:18:00,55.4,53.4,29.62,SSW,208,19.6,19.6,93,0.00,BKN,,0.03,58.0,WeatherDisplay:10.37,2013-01-29 13:18:00,
2013-01-29 13:23:00,55.4,53.1,29.64,SSW,213,13.8,13.8,92,0.00,BKN,,0.03,70.0,WeatherDisplay:10.37,2013-01-29 13:23:00,
2013-01-29 13:28:00,55.5,53.2,29.63,SSW,205,19.0,19.0,92,0.00,BKN,,0.03,56.0,WeatherDisplay:10.37,2013-01-29 13:28:00,
2013-01-29 13:33:00,55.6,53.3,29.63,WSW,246,19.6,19.6,92,0.00,BKN,,0.03,60.0,WeatherDisplay:10.37,2013-01-29 13:33:00,
2013-01-29 13:38:00,55.6,53.3,29.63,SSW,207,13.8,13.8,92,0.00,BKN,,0.03,67.0,WeatherDisplay:10.37,2013-01-29 13:38:00,
2013-01-29 13:43:00,55.7,53.4,29.63,SW,230,15.0,15.0,92,0.00,BKN,,0.03,69.0,WeatherDisplay:10.37,2013-01-29 13:43:00,
2013-01-29 13:48:00,55.6,53.3,29.64,SW,225,27.0,27.0,92,0.00,BKN,,0.03,53.0,WeatherDisplay:10.37,2013-01-29 13:48:00,
2013-01-29 13:53:00,55.7,53.1,29.63,West,259,19.6,19.6,91,0.00,BKN,,0.03,51.0,WeatherDisplay:10.37,2013-01-29 13:53:00,
2013-01-29 13:58:00,55.7,53.1,29.63,WSW,245,16.1,16.1,91,0.00,BKN,,0.03,53.0,WeatherDisplay:10.37,2013-01-29 13:58:00,
2013-01-29 14:03:00,55.6,53.0,29.63,SSW,207,11.0,11.0,91,0.00,BKN,,0.03,32.0,WeatherDisplay:10.37,2013-01-29 14:03:00,
2013-01-29 14:08:00,55.6,53.0,29.63,WSW,247,25.3,25.3,91,0.00,BKN,,0.03,35.0,WeatherDisplay:10.37,2013-01-29 14:08:00,
2013-01-29 14:13:00,55.6,52.7,29.62,WSW,257,15.0,15.0,90,0.00,BKN,,0.03,44.0,WeatherDisplay:10.37,2013-01-29 14:13:00,
2013-01-29 14:18:00,55.6,53.0,29.62,SSW,209,20.7,20.7,91,0.00,BKN,,0.03,39.0,WeatherDisplay:10.37,2013-01-29 14:18:00,
2013-01-29 14:23:00,55.6,53.0,29.62,WSW,252,17.3,17.3,91,0.00,BKN,,0.03,35.0,WeatherDisplay:10.37,2013-01-29 14:23:00,
2013-01-29 14:28:00,55.5,52.9,29.62,WSW,254,15.0,15.0,91,0.00,BKN,,0.03,58.0,WeatherDisplay:10.37,2013-01-29 14:28:00,
2013-01-29 14:33:00,55.5,52.9,29.62,WSW,254,11.5,11.5,91,0.00,BKN,,0.03,49.0,WeatherDisplay:10.37,2013-01-29 14:33:00,
2013-01-29 14:38:00,55.6,53.0,29.62,SSE,157,16.1,16.1,91,0.00,BKN,,0.03,33.0,WeatherDisplay:10.37,2013-01-29 14:38:00,
2013-01-29 14:43:00,55.6,52.7,29.62,West,261,19.6,19.6,90,0.00,BKN,,0.03,33.0,WeatherDisplay:10.37,2013-01-29 14:43:00,
2013-01-29 14:48:00,55.7,52.8,29.62,WSW,242,19.6,19.6,90,0.00,BKN,,0.03,18.0,WeatherDisplay:10.37,2013-01-29 14:48:00,
2013-01-29 14:53:00,55.7,52.8,29.62,South,183,15.0,15.0,90,0.00,BKN,,0.03,26.0,WeatherDisplay:10.37,2013-01-29 14:53:00,
2013-01-29 14:58:00,55.7,52.8,29.62,SSW,211,17.3,17.3,90,0.00,BKN,,0.03,23.0,WeatherDisplay:10.37,2013-01-29 14:58:00,
2013-01-29 15:03:00,55.7,52.8,29.61,SW,234,16.1,16.1,90,0.00,BKN,,0.03,19.0,WeatherDisplay:10.37,2013-01-29 15:03:00,
2013-01-29 15:08:00,55.6,52.7,29.62,WNW,287,19.6,19.6,90,0.00,BKN,,0.03,16.0,WeatherDisplay:10.37,2013-01-29 15:08:00,
2013-01-29 15:13:00,55.7,52.8,29.61,SSW,194,23.0,23.0,90,0.00,BKN,,0.03,18.0,WeatherDisplay:10.37,2013-01-29 15:13:00,
2013-01-29 15:18:00,55.8,52.9,29.62,WSW,256,17.3,17.3,90,0.00,BKN,,0.03,25.0,WeatherDisplay:10.37,2013-01-29 15:18:00,
2013-01-29 15:23:00,55.8,52.9,29.61,SSW,209,16.1,16.1,90,0.00,BKN,,0.03,14.0,WeatherDisplay:10.37,2013-01-29 15:23:00,
2013-01-29 15:28:00,55.7,52.8,29.62,SW,227,16.1,16.1,90,0.00,BKN,,0.03,12.0,WeatherDisplay:10.37,2013-01-29 15:28:00,
2013-01-29 15:33:00,55.7,52.8,29.62,SW,223,11.5,11.5,90,0.00,BKN,,0.03,9.0,WeatherDisplay:10.37,2013-01-29 15:33:00,
2013-01-29 15:38:00,55.6,52.7,29.62,SW,223,11.5,11.5,90,0.00,BKN,,0.03,7.0,WeatherDisplay:10.37,2013-01-29 15:38:00,
2013-01-29 15:43:00,55.6,53.0,29.62,West,260,16.1,16.1,91,0.00,BKN,,0.03,5.0,WeatherDisplay:10.37,2013-01-29 15:43:00,
2013-01-29 15:48:00,55.6,53.0,29.61,SW,215,20.7,20.7,91,0.00,BKN,,0.03,9.0,WeatherDisplay:10.37,2013-01-29 15:48:00,
2013-01-29 15:53:00,55.6,53.0,29.61,SSW,211,10.4,10.4,91,0.00,BKN,,0.03,7.0,WeatherDisplay:10.37,2013-01-29 15:53:00,
2013-01-29 15:58:00,55.5,52.9,29.61,SW,227,15.0,15.0,91,0.00,BKN,,0.03,9.0,WeatherDisplay:10.37,2013-01-29 15:58:00,
2013-01-29 16:03:00,55.5,52.9,29.61,West,265,11.5,11.5,91,0.00,BKN,,0.03,7.0,WeatherDisplay:10.37,2013-01-29 16:03:00,
2013-01-29 16:08:00,55.5,52.9,29.61,SW,221,16.1,16.1,91,0.00,BKN,,0.03,7.0,WeatherDisplay:10.37,2013-01-29 16:08:00,
2013-01-29 16:13:00,55.5,52.6,29.61,SW,236,12.7,12.7,90,0.00,BKN,,0.03,5.0,WeatherDisplay:10.37,2013-01-29 16:13:00,
2013-01-29 16:18:00,55.6,52.7,29.62,WNW,290,20.7,20.7,90,0.00,OVC,,0.03,0.0,WeatherDisplay:10.37,2013-01-29 16:18:00,
2013-01-29 16:23:00,55.5,52.6,29.61,West,279,19.6,19.6,90,0.00,OVC,,0.03,0.0,WeatherDisplay:10.37,2013-01-29 16:23:00,
2013-01-29 16:28:00,55.6,52.7,29.61,SSW,213,19.6,19.6,90,0.00,OVC,,0.03,0.0,WeatherDisplay:10.37,2013-01-29 16:28:00,
2013-01-29 16:33:00,55.5,52.6,29.61,SSW,205,23.0,23.0,90,0.00,OVC,,0.03,0.0,WeatherDisplay:10.37,2013-01-29 16:33:00,
2013-01-29 16:38:00,55.5,52.6,29.61,SSW,203,9.0,9.0,90,0.00,OVC,,0.03,0.0,WeatherDisplay:10.37,2013-01-29 16:38:00,
2013-01-29 16:43:00,55.5,52.6,29.61,SW,225,18.4,18.4,90,0.00,OVC,,0.03,0.0,WeatherDisplay:10.37,2013-01-29 16:43:00,
2013-01-29 16:48:00,55.4,52.8,29.61,West,279,16.1,16.1,91,0.00,OVC,,0.03,0.0,WeatherDisplay:10.37,2013-01-29 16:48:00,
2013-01-29 16:53:00,55.4,52.8,29.61,WSW,251,11.5,11.5,91,0.00,OVC,,0.03,0.0,WeatherDisplay:10.37,2013-01-29 16:53:00,
2013-01-29 16:58:00,55.4,52.8,29.61,ENE,72,11.5,11.5,91,0.00,OVC,,0.03,0.0,WeatherDisplay:10.37,2013-01-29 16:58:00,
2013-01-29 17:03:00,55.3,52.7,29.61,West,263,19.6,19.6,91,0.00,CLR,,0.03,0.0,WeatherDisplay:10.37,2013-01-29 17:03:00,
2013-01-29 17:08:00,55.3,52.7,29.61,WSW,237,20.7,20.7,91,0.00,CLR,,0.03,0.0,WeatherDisplay:10.37,2013-01-29 17:08:00,
2013-01-29 17:13:00,55.2,52.6,29.61,West,272,21.9,21.9,91,0.00,CLR,,0.03,0.0,WeatherDisplay:10.37,2013-01-29 17:13:00,
2013-01-29 17:18:00,55.1,52.5,29.61,SW,236,11.5,11.5,91,0.00,CLR,,0.03,0.0,WeatherDisplay:10.37,2013-01-29 17:18:00,
2013-01-29 17:23:00,55.1,52.5,29.61,West,268,17.3,17.3,91,0.00,CLR,,0.03,0.0,WeatherDisplay:10.37,2013-01-29 17:23:00,
2013-01-29 17:28:00,55.0,52.7,29.61,SW,224,17.3,17.3,92,0.00,CLR,,0.03,0.0,WeatherDisplay:10.37,2013-01-29 17:28:00,
2013-01-29 17:33:00,55.0,52.7,29.61,South,175,20.7,20.7,92,0.00,CLR,,0.03,0.0,WeatherDisplay:10.37,2013-01-29 17:33:00,
2013-01-29 17:38:00,54.9,52.6,29.60,SSW,200,18.4,18.4,92,0.00,CLR,,0.03,0.0,WeatherDisplay:10.37,2013-01-29 17:38:00,
2013-01-29 17:43:00,54.8,52.5,29.60,SW,236,16.0,16.0,92,0.00,CLR,,0.03,0.0,WeatherDisplay:10.37,2013-01-29 17:43:00,
2013-01-29 17:48:00,54.6,52.6,29.60,SW,229,26.5,26.5,93,0.00,CLR,,0.03,0.0,WeatherDisplay:10.37,2013-01-29 17:48:00,
2013-01-29 17:53:00,54.5,52.5,29.60,SW,221,21.9,21.9,93,0.00,CLR,,0.03,0.0,WeatherDisplay:10.37,2013-01-29 17:53:00,
2013-01-29 17:58:00,54.5,52.5,29.60,SSW,207,13.8,13.8,93,0.00,CLR,,0.03,0.0,WeatherDisplay:10.37,2013-01-29 17:58:00,
2013-01-29 18:03:00,54.5,52.5,29.60,SW,221,7.0,7.0,93,0.00,CLR,,0.03,0.0,WeatherDisplay:10.37,2013-01-29 18:03:00,
2013-01-29 18:08:00,54.5,52.5,29.60,WSW,258,11.5,11.5,93,0.00,CLR,,0.03,0.0,WeatherDisplay:10.37,2013-01-29 18:08:00,
2013-01-29 18:13:00,54.5,52.5,29.60,SSE,163,10.4,10.4,93,0.01,RA,,0.04,0.0,WeatherDisplay:10.37,2013-01-29 18:13:00,
2013-01-29 18:18:00,54.5,52.5,29.60,SW,234,19.6,19.6,93,0.01,RA,,0.04,0.0,WeatherDisplay:10.37,2013-01-29 18:18:00,
2013-01-29 18:23:00,54.4,52.4,29.60,SW,214,18.4,18.4,93,0.01,,,0.04,0.0,WeatherDisplay:10.37,2013-01-29 18:23:00,
2013-01-29 18:28:00,54.4,52.4,29.60,SW,219,21.9,21.9,93,0.01,CLR,,0.04,0.0,WeatherDisplay:10.37,2013-01-29 18:28:00,
2013-01-29 18:33:00,54.4,52.7,29.61,SSW,200,16.1,16.1,94,0.01,CLR,,0.04,0.0,WeatherDisplay:10.37,2013-01-29 18:33:00,
2013-01-29 18:38:00,54.3,52.6,29.61,SSW,207,15.0,15.0,94,0.01,CLR,,0.04,0.0,WeatherDisplay:10.37,2013-01-29 18:38:00,
2013-01-29 18:43:00,54.2,52.5,29.61,SSW,211,13.0,13.0,94,0.01,CLR,,0.04,0.0,WeatherDisplay:10.37,2013-01-29 18:43:00,
2013-01-29 18:48:00,54.2,52.5,29.61,South,179,8.0,8.0,94,0.01,CLR,,0.04,0.0,WeatherDisplay:10.37,2013-01-29 18:48:00,
2013-01-29 18:53:00,54.1,52.4,29.61,SW,225,11.5,11.5,94,0.01,CLR,,0.04,0.0,WeatherDisplay:10.37,2013-01-29 18:53:00,
2013-01-29 18:58:00,54.0,52.3,29.60,West,261,15.0,15.0,94,0.01,CLR,,0.04,0.0,WeatherDisplay:10.37,2013-01-29 18:58:00,
2013-01-29 19:03:00,54.0,52.3,29.60,South,175,16.1,16.1,94,0.01,CLR,,0.04,0.0,WeatherDisplay:10.37,2013-01-29 19:03:00,
2013-01-29 19:08:00,53.9,52.2,29.61,SSW,200,11.5,11.5,94,0.01,CLR,,0.04,0.0,WeatherDisplay:10.37,2013-01-29 19:08:00,
2013-01-29 19:13:00,53.9,52.2,29.61,South,188,10.4,10.4,94,0.00,CLR,,0.04,0.0,WeatherDisplay:10.37,2013-01-29 19:13:00,
2013-01-29 19:18:00,53.9,52.5,29.60,SSW,209,12.7,12.7,95,0.00,CLR,,0.04,0.0,WeatherDisplay:10.37,2013-01-29 19:18:00,
2013-01-29 19:23:00,53.8,52.4,29.60,WSW,240,6.9,6.9,95,0.00,CLR,,0.04,0.0,WeatherDisplay:10.37,2013-01-29 19:23:00,
2013-01-29 19:28:00,53.7,52.3,29.60,SSW,192,11.5,11.5,95,0.00,CLR,,0.04,0.0,WeatherDisplay:10.37,2013-01-29 19:28:00,
2013-01-29 19:33:00,53.7,52.3,29.60,West,261,17.3,17.3,95,0.00,CLR,,0.04,0.0,WeatherDisplay:10.37,2013-01-29 19:33:00,
2013-01-29 19:38:00,53.6,52.2,29.60,South,186,10.0,10.0,95,0.00,CLR,,0.04,0.0,WeatherDisplay:10.37,2013-01-29 19:38:00,
2013-01-29 19:43:00,53.6,52.2,29.60,SSW,206,24.2,24.2,95,0.01,RA,,0.05,0.0,WeatherDisplay:10.37,2013-01-29 19:43:00,
2013-01-29 19:48:00,53.6,52.2,29.60,South,186,17.3,17.3,95,0.01,RA,,0.05,0.0,WeatherDisplay:10.37,2013-01-29 19:48:00,
2013-01-29 19:53:00,53.5,52.1,29.60,WSW,240,10.0,10.0,95,0.01,CLR,,0.05,0.0,WeatherDisplay:10.37,2013-01-29 19:53:00,
2013-01-29 19:58:00,53.5,52.1,29.60,SW,223,13.8,13.8,95,0.01,CLR,,0.05,0.0,WeatherDisplay:10.37,2013-01-29 19:58:00,
2013-01-29 20:03:00,53.5,52.1,29.60,South,179,15.0,15.0,95,0.01,CLR,,0.05,0.0,WeatherDisplay:10.37,2013-01-29 20:03:00,
2013-01-29 20:08:00,53.4,52.3,29.59,SW,229,18.0,18.0,96,0.01,CLR,,0.05,0.0,WeatherDisplay:10.37,2013-01-29 20:08:00,
2013-01-29 20:13:00,53.5,52.4,29.59,South,169,19.6,19.6,96,0.02,RA,,0.06,0.0,WeatherDisplay:10.37,2013-01-29 20:13:00,
2013-01-29 20:18:00,53.5,52.4,29.59,SW,229,17.3,17.3,96,0.02,RA,,0.06,0.0,WeatherDisplay:10.37,2013-01-29 20:18:00,
2013-01-29 20:23:00,53.5,52.4,29.59,WSW,238,20.7,20.7,96,0.02,CLR,,0.06,0.0,WeatherDisplay:10.37,2013-01-29 20:23:00,
2013-01-29 20:28:00,53.5,52.4,29.59,SW,233,11.5,11.5,96,0.02,CLR,,0.06,0.0,WeatherDisplay:10.37,2013-01-29 20:28:00,
2013-01-29 20:33:00,53.5,52.1,29.59,SW,218,6.9,6.9,95,0.02,CLR,,0.06,0.0,WeatherDisplay:10.37,2013-01-29 20:33:00,
2013-01-29 20:38:00,53.5,52.1,29.59,SW,214,19.6,19.6,95,0.02,CLR,,0.06,0.0,WeatherDisplay:10.37,2013-01-29 20:38:00,
2013-01-29 20:43:00,53.4,52.0,29.59,WSW,238,13.8,13.8,95,0.01,CLR,,0.06,0.0,WeatherDisplay:10.37,2013-01-29 20:43:00,
2013-01-29 20:48:00,53.3,51.9,29.59,WSW,245,12.7,12.7,95,0.01,CLR,,0.06,0.0,WeatherDisplay:10.37,2013-01-29 20:48:00,
2013-01-29 20:53:00,53.3,51.9,29.59,SW,223,19.6,19.6,95,0.01,CLR,,0.06,0.0,WeatherDisplay:10.37,2013-01-29 20:53:00,
2013-01-29 20:58:00,53.3,51.9,29.59,SW,236,17.3,17.3,95,0.01,CLR,,0.06,0.0,WeatherDisplay:10.37,2013-01-29 20:58:00,
2013-01-29 21:03:00,53.2,51.8,29.59,SSW,213,11.5,11.5,95,0.01,CLR,,0.06,0.0,WeatherDisplay:10.37,2013-01-29 21:03:00,
2013-01-29 21:08:00,53.2,51.8,29.59,WSW,257,17.3,17.3,95,0.01,CLR,,0.06,0.0,WeatherDisplay:10.37,2013-01-29 21:08:00,
2013-01-29 21:13:00,53.2,51.8,29.59,West,260,17.3,17.3,95,0.00,CLR,,0.06,0.0,WeatherDisplay:10.37,2013-01-29 21:13:00,
2013-01-29 21:18:00,53.2,51.8,29.59,SSE,163,13.8,13.8,95,0.00,CLR,,0.06,0.0,WeatherDisplay:10.37,2013-01-29 21:18:00,
2013-01-29 21:23:00,53.2,51.8,29.59,SSW,205,19.6,19.6,95,0.00,CLR,,0.06,0.0,WeatherDisplay:10.37,2013-01-29 21:23:00,
2013-01-29 21:28:00,53.2,51.8,29.58,SW,225,23.0,23.0,95,0.01,RA,,0.06,0.0,WeatherDisplay:10.37,2013-01-29 21:28:00,
2013-01-29 21:33:00,53.2,51.8,29.59,South,181,15.0,15.0,95,0.01,RA,,0.06,0.0,WeatherDisplay:10.37,2013-01-29 21:33:00,
2013-01-29 21:38:00,53.2,51.8,29.59,SW,214,23.0,23.0,95,0.01,,,0.06,0.0,WeatherDisplay:10.37,2013-01-29 21:38:00,
2013-01-29 21:43:00,53.2,51.8,29.58,SW,225,13.8,13.8,95,0.01,CLR,,0.06,0.0,WeatherDisplay:10.37,2013-01-29 21:43:00,
2013-01-29 21:48:00,53.2,52.1,29.58,SW,227,23.0,23.0,96,0.02,RA,,0.07,0.0,WeatherDisplay:10.37,2013-01-29 21:48:00,
2013-01-29 21:53:00,53.2,52.1,29.58,SW,219,13.8,13.8,96,0.02,RA,,0.07,0.0,WeatherDisplay:10.37,2013-01-29 21:53:00,
2013-01-29 21:58:00,53.2,52.1,29.58,WSW,256,10.4,10.4,96,0.02,,,0.07,0.0,WeatherDisplay:10.37,2013-01-29 21:58:00,
2013-01-29 22:03:00,53.2,52.1,29.58,SSW,213,12.7,12.7,96,0.02,CLR,,0.07,0.0,WeatherDisplay:10.37,2013-01-29 22:03:00,
2013-01-29 22:08:00,53.2,52.1,29.58,WSW,254,6.9,6.9,96,0.02,CLR,,0.07,0.0,WeatherDisplay:10.37,2013-01-29 22:08:00,
2013-01-29 22:13:00,53.2,52.1,29.58,SSW,200,15.0,15.0,96,0.02,CLR,,0.07,0.0,WeatherDisplay:10.37,2013-01-29 22:13:00,
2013-01-29 22:18:00,53.3,52.2,29.58,SSW,193,19.6,19.6,96,0.02,CLR,,0.07,0.0,WeatherDisplay:10.37,2013-01-29 22:18:00,
2013-01-29 22:23:00,53.3,52.2,29.57,SW,227,16.1,16.1,96,0.02,RA,,0.08,0.0,WeatherDisplay:10.37,2013-01-29 22:23:00,
2013-01-29 22:28:00,53.3,52.2,29.58,SW,226,17.3,17.3,96,0.02,RA,,0.08,0.0,WeatherDisplay:10.37,2013-01-29 22:28:00,
2013-01-29 22:33:00,53.3,52.2,29.58,SSW,198,11.5,11.5,96,0.02,CLR,,0.08,0.0,WeatherDisplay:10.37,2013-01-29 22:33:00,
2013-01-29 22:38:00,53.3,52.2,29.57,West,259,16.1,16.1,96,0.02,CLR,,0.08,0.0,WeatherDisplay:10.37,2013-01-29 22:38:00,
2013-01-29 22:43:00,53.3,52.2,29.57,SSW,192,11.5,11.5,96,0.02,CLR,,0.08,0.0,WeatherDisplay:10.37,2013-01-29 22:43:00,
2013-01-29 22:48:00,53.4,52.3,29.57,SSW,202,15.0,15.0,96,0.01,CLR,,0.08,0.0,WeatherDisplay:10.37,2013-01-29 22:48:00,
2013-01-29 22:53:00,53.5,52.4,29.57,WSW,254,16.1,16.1,96,0.01,CLR,,0.08,0.0,WeatherDisplay:10.37,2013-01-29 22:53:00,
2013-01-29 22:58:00,53.5,52.4,29.57,SW,222,10.4,10.4,96,0.01,CLR,,0.08,0.0,WeatherDisplay:10.37,2013-01-29 22:58:00,
2013-01-29 23:03:00,53.5,52.4,29.57,SSW,206,18.4,18.4,96,0.01,CLR,,0.08,0.0,WeatherDisplay:10.37,2013-01-29 23:03:00,
2013-01-29 23:08:00,53.6,52.5,29.57,SW,217,10.4,10.4,96,0.01,CLR,,0.08,0.0,WeatherDisplay:10.37,2013-01-29 23:08:00,
2013-01-29 23:13:00,53.6,52.5,29.57,WSW,251,16.1,16.1,96,0.01,CLR,,0.08,0.0,WeatherDisplay:10.37,2013-01-29 23:13:00,
2013-01-29 23:18:00,53.6,52.5,29.57,SW,221,12.7,12.7,96,0.01,CLR,,0.08,0.0,WeatherDisplay:10.37,2013-01-29 23:18:00,
2013-01-29 23:23:00,53.7,52.6,29.57,SW,221,21.9,21.9,96,0.00,CLR,,0.08,0.0,WeatherDisplay:10.37,2013-01-29 23:23:00,
2013-01-29 23:28:00,53.7,52.6,29.57,West,265,7.0,7.0,96,0.00,CLR,,0.08,0.0,WeatherDisplay:10.37,2013-01-29 23:28:00,
2013-01-29 23:33:00,53.7,52.6,29.57,West,261,12.7,12.7,96,0.00,CLR,,0.08,0.0,WeatherDisplay:10.37,2013-01-29 23:33:00,
2013-01-29 23:38:00,53.8,52.7,29.57,SW,225,11.5,11.5,96,0.00,CLR,,0.08,0.0,WeatherDisplay:10.37,2013-01-29 23:38:00,
2013-01-29 23:43:00,53.9,52.8,29.57,SW,233,9.2,9.2,96,0.00,CLR,,0.08,0.0,WeatherDisplay:10.37,2013-01-29 23:43:00,
2013-01-29 23:48:00,54.0,52.6,29.57,West,260,12.7,12.7,95,0.00,CLR,,0.08,0.0,WeatherDisplay:10.37,2013-01-29 23:48:00,
2013-01-29 23:53:00,54.0,52.6,29.56,SSW,195,12.0,12.0,95,0.00,CLR,,0.08,0.0,WeatherDisplay:10.37,2013-01-29 23:53:00,
2013-01-29 23:58:00,54.1,52.7,29.56,SSW,209,13.8,13.8,95,0.00,CLR,,0.08,0.0,WeatherDisplay:10.37,2013-01-29 23:58:00,